sensor_id;sensor_type;location;lat;lon;timestamp;pressure;altitude;pressure_sealevel;temperature;humidity
5126;BME280;63008;53.112;8.896;2023-08-01T00:01:46;99645.69;;;16.58;100.00
5126;BME280;63008;53.112;8.896;2023-08-01T00:03:47;99647.66;;;16.58;100.00
5126;BME280;63008;53.112;8.896;2023-08-01T00:05:48;99646.47;;;16.59;100.00
5126;BME280;63008;53.112;8.896;2023-08-01T00:07:49;99643.31;;;16.60;100.00
5126;BME280;63008;53.112;8.896;2023-08-01T00:09:50;99638.97;;;16.59;100.00
5126;BME280;63008;53.112;8.896;2023-08-01T00:11:51;99633.44;;;16.59;100.00
5126;BME280;63008;53.112;8.896;2023-08-01T00:13:52;99624.31;;;16.62;100.00
5126;BME280;63008;53.112;8.896;2023-08-01T00:15:53;99624.69;;;16.64;100.00
5126;BME280;63008;53.112;8.896;2023-08-01T00:17:54;99621.16;;;16.64;100.00
5126;BME280;63008;53.112;8.896;2023-08-01T00:19:55;99618.78;;;16.62;100.00
5126;BME280;63008;53.112;8.896;2023-08-01T00:21:56;99616.78;;;16.63;100.00
5126;BME280;63008;53.112;8.896;2023-08-01T00:23:57;99605.69;;;16.63;100.00
5126;BME280;63008;53.112;8.896;2023-08-01T00:25:58;99611.22;;;16.63;100.00
5126;BME280;63008;53.112;8.896;2023-08-01T00:27:59;99617.94;;;16.72;100.00
5126;BME280;63008;53.112;8.896;2023-08-01T00:30:00;99609.22;;;16.70;100.00
5126;BME280;63008;53.112;8.896;2023-08-01T00:32:01;99604.88;;;16.76;100.00
5126;BME280;63008;53.112;8.896;2023-08-01T00:34:02;99596.94;;;16.75;100.00
5126;BME280;63008;53.112;8.896;2023-08-01T00:36:03;99601.28;;;16.72;100.00
5126;BME280;63008;53.112;8.896;2023-08-01T00:38:04;99587.06;;;16.70;100.00
5126;BME280;63008;53.112;8.896;2023-08-01T00:40:05;99590.22;;;16.72;100.00
5126;BME280;63008;53.112;8.896;2023-08-01T00:42:06;99584.66;;;16.72;100.00
5126;BME280;63008;53.112;8.896;2023-08-01T00:44:07;99577.16;;;16.69;100.00
5126;BME280;63008;53.112;8.896;2023-08-01T00:46:09;99578.34;;;16.72;100.00
5126;BME280;63008;53.112;8.896;2023-08-01T00:48:10;99585.47;;;16.69;100.00
5126;BME280;63008;53.112;8.896;2023-08-01T00:50:11;99584.28;;;16.70;100.00
5126;BME280;63008;53.112;8.896;2023-08-01T00:52:13;99577.97;;;16.70;100.00
5126;BME280;63008;53.112;8.896;2023-08-01T00:54:14;99573.63;;;16.65;100.00
5126;BME280;63008;53.112;8.896;2023-08-01T00:56:15;99577.59;;;16.64;100.00
5126;BME280;63008;53.112;8.896;2023-08-01T00:58:16;99576.03;;;16.63;100.00
5126;BME280;63008;53.112;8.896;2023-08-01T01:00:17;99569.28;;;16.61;100.00
5126;BME280;63008;53.112;8.896;2023-08-01T01:02:18;99560.97;;;16.61;100.00
5126;BME280;63008;53.112;8.896;2023-08-01T01:04:19;99560.59;;;16.62;100.00
5126;BME280;63008;53.112;8.896;2023-08-01T01:06:24;99565.31;;;16.62;100.00
5126;BME280;63008;53.112;8.896;2023-08-01T01:08:26;99564.56;;;16.61;100.00
5126;BME280;63008;53.112;8.896;2023-08-01T01:10:27;99557.81;;;16.62;100.00
5126;BME280;63008;53.112;8.896;2023-08-01T01:12:28;99553.88;;;16.60;100.00
5126;BME280;63008;53.112;8.896;2023-08-01T01:14:29;99550.72;;;16.61;100.00
5126;BME280;63008;53.112;8.896;2023-08-01T01:16:30;99542.78;;;16.60;100.00
5126;BME280;63008;53.112;8.896;2023-08-01T01:18:31;99535.66;;;16.59;100.00
5126;BME280;63008;53.112;8.896;2023-08-01T01:20:35;99535.28;;;16.60;100.00
5126;BME280;63008;53.112;8.896;2023-08-01T01:22:37;99526.97;;;16.60;100.00
5126;BME280;63008;53.112;8.896;2023-08-01T01:24:40;99529.31;;;16.65;100.00
5126;BME280;63008;53.112;8.896;2023-08-01T01:26:42;99528.94;;;16.60;100.00
5126;BME280;63008;53.112;8.896;2023-08-01T01:28:44;99519.84;;;16.56;100.00
5126;BME280;63008;53.112;8.896;2023-08-01T01:30:45;99525.78;;;16.58;100.00
5126;BME280;63008;53.112;8.896;2023-08-01T01:32:46;99524.97;;;16.61;100.00
5126;BME280;63008;53.112;8.896;2023-08-01T01:34:48;99516.66;;;16.61;100.00
5126;BME280;63008;53.112;8.896;2023-08-01T01:36:49;99526.97;;;16.60;100.00
5126;BME280;63008;53.112;8.896;2023-08-01T01:38:50;99526.59;;;16.55;100.00
5126;BME280;63008;53.112;8.896;2023-08-01T01:40:51;99523.44;;;16.57;100.00
5126;BME280;63008;53.112;8.896;2023-08-01T01:42:51;99523.81;;;16.58;100.00
5126;BME280;63008;53.112;8.896;2023-08-01T01:44:52;99519.84;;;16.56;100.00
5126;BME280;63008;53.112;8.896;2023-08-01T01:46:53;99530.16;;;16.56;100.00
5126;BME280;63008;53.112;8.896;2023-08-01T01:48:56;99526.22;;;16.53;100.00
5126;BME280;63008;53.112;8.896;2023-08-01T01:50:58;99513.56;;;16.52;100.00
5126;BME280;63008;53.112;8.896;2023-08-01T01:52:59;99510.78;;;16.52;100.00
5126;BME280;63008;53.112;8.896;2023-08-01T01:55:00;99508.41;;;16.51;100.00
5126;BME280;63008;53.112;8.896;2023-08-01T01:57:01;99503.66;;;16.51;100.00
5126;BME280;63008;53.112;8.896;2023-08-01T01:59:02;99503.25;;;16.56;100.00
5126;BME280;63008;53.112;8.896;2023-08-01T02:01:03;99496.13;;;16.52;100.00
5126;BME280;63008;53.112;8.896;2023-08-01T02:03:04;99504.81;;;16.53;100.00
5126;BME280;63008;53.112;8.896;2023-08-01T02:05:08;99499.28;;;16.53;100.00
5126;BME280;63008;53.112;8.896;2023-08-01T02:07:09;99499.72;;;16.52;100.00
5126;BME280;63008;53.112;8.896;2023-08-01T02:09:10;99487.44;;;16.50;100.00
5126;BME280;63008;53.112;8.896;2023-08-01T02:11:11;99491.78;;;16.51;100.00
5126;BME280;63008;53.112;8.896;2023-08-01T02:13:12;99490.63;;;16.48;100.00
5126;BME280;63008;53.112;8.896;2023-08-01T02:15:12;99488.25;;;16.50;100.00
5126;BME280;63008;53.112;8.896;2023-08-01T02:17:14;99480.31;;;16.49;100.00
5126;BME280;63008;53.112;8.896;2023-08-01T02:19:15;99484.28;;;16.48;100.00
5126;BME280;63008;53.112;8.896;2023-08-01T02:21:15;99483.47;;;16.51;100.00
5126;BME280;63008;53.112;8.896;2023-08-01T02:23:16;99472.41;;;16.51;100.00
5126;BME280;63008;53.112;8.896;2023-08-01T02:25:17;99472.00;;;16.56;100.00
5126;BME280;63008;53.112;8.896;2023-08-01T02:27:18;99467.25;;;16.52;100.00
5126;BME280;63008;53.112;8.896;2023-08-01T02:29:19;99466.84;;;16.51;100.00
5126;BME280;63008;53.112;8.896;2023-08-01T02:31:20;99469.25;;;16.49;100.00
5126;BME280;63008;53.112;8.896;2023-08-01T02:33:21;99466.84;;;16.51;100.00
5126;BME280;63008;53.112;8.896;2023-08-01T02:35:22;99460.56;;;16.47;100.00
5126;BME280;63008;53.112;8.896;2023-08-01T02:37:23;99460.56;;;16.43;100.00
5126;BME280;63008;53.112;8.896;2023-08-01T02:39:25;99457.41;;;16.48;100.00
5126;BME280;63008;53.112;8.896;2023-08-01T02:41:26;99448.66;;;16.50;100.00
5126;BME280;63008;53.112;8.896;2023-08-01T02:43:27;99457.78;;;16.47;100.00
5126;BME280;63008;53.112;8.896;2023-08-01T02:45:28;99463.31;;;16.47;100.00
5126;BME280;63008;53.112;8.896;2023-08-01T02:47:29;99454.25;;;16.43;100.00
5126;BME280;63008;53.112;8.896;2023-08-01T02:49:30;99455.44;;;16.42;100.00
5126;BME280;63008;53.112;8.896;2023-08-01T02:51:31;99453.88;;;16.41;100.00
5126;BME280;63008;53.112;8.896;2023-08-01T02:53:32;99446.72;;;16.43;100.00
5126;BME280;63008;53.112;8.896;2023-08-01T02:55:33;99443.94;;;16.43;100.00
5126;BME280;63008;53.112;8.896;2023-08-01T02:57:34;99446.34;;;16.45;100.00
5126;BME280;63008;53.112;8.896;2023-08-01T02:59:35;99445.53;;;16.44;100.00
5126;BME280;63008;53.112;8.896;2023-08-01T03:01:37;99436.47;;;16.40;100.00
5126;BME280;63008;53.112;8.896;2023-08-01T03:03:39;99440.41;;;16.43;100.00
5126;BME280;63008;53.112;8.896;2023-08-01T03:05:40;99430.53;;;16.42;100.00
5126;BME280;63008;53.112;8.896;2023-08-01T03:07:41;99428.16;;;16.40;100.00
5126;BME280;63008;53.112;8.896;2023-08-01T03:09:42;99426.97;;;16.41;100.00
5126;BME280;63008;53.112;8.896;2023-08-01T03:11:43;99427.38;;;16.40;100.00
5126;BME280;63008;53.112;8.896;2023-08-01T03:13:44;99417.06;;;16.40;100.00
5126;BME280;63008;53.112;8.896;2023-08-01T03:15:45;99422.63;;;16.37;100.00
5126;BME280;63008;53.112;8.896;2023-08-01T03:17:46;99425.00;;;16.42;100.00
5126;BME280;63008;53.112;8.896;2023-08-01T03:19:47;99420.25;;;16.39;100.00
5126;BME280;63008;53.112;8.896;2023-08-01T03:21:49;99418.28;;;16.39;100.00
5126;BME280;63008;53.112;8.896;2023-08-01T03:23:50;99415.06;;;16.44;100.00
5126;BME280;63008;53.112;8.896;2023-08-01T03:25:51;99419.47;;;16.38;100.00
5126;BME280;63008;53.112;8.896;2023-08-01T03:27:52;99419.00;;;16.47;100.00
5126;BME280;63008;53.112;8.896;2023-08-01T03:29:55;99420.66;;;16.41;100.00
5126;BME280;63008;53.112;8.896;2023-08-01T03:31:56;99413.53;;;16.40;100.00
5126;BME280;63008;53.112;8.896;2023-08-01T03:33:57;99425.00;;;16.35;100.00
5126;BME280;63008;53.112;8.896;2023-08-01T03:36:00;99420.25;;;16.39;100.00
5126;BME280;63008;53.112;8.896;2023-08-01T03:38:01;99422.63;;;16.40;100.00
5126;BME280;63008;53.112;8.896;2023-08-01T03:40:02;99425.75;;;16.42;100.00
5126;BME280;63008;53.112;8.896;2023-08-01T03:42:04;99421.84;;;16.36;100.00
5126;BME280;63008;53.112;8.896;2023-08-01T03:44:05;99420.28;;;16.35;100.00
5126;BME280;63008;53.112;8.896;2023-08-01T03:46:07;99423.41;;;16.34;100.00
5126;BME280;63008;53.112;8.896;2023-08-01T03:48:08;99430.13;;;16.33;100.00
5126;BME280;63008;53.112;8.896;2023-08-01T03:50:09;99423.81;;;16.36;100.00
5126;BME280;63008;53.112;8.896;2023-08-01T03:52:10;99434.47;;;16.34;100.00
5126;BME280;63008;53.112;8.896;2023-08-01T03:54:11;99430.53;;;16.38;100.00
5126;BME280;63008;53.112;8.896;2023-08-01T03:56:12;99423.03;;;16.32;100.00
5126;BME280;63008;53.112;8.896;2023-08-01T03:58:13;99429.75;;;16.27;100.00
5126;BME280;63008;53.112;8.896;2023-08-01T04:00:14;99432.13;;;16.32;100.00
5126;BME280;63008;53.112;8.896;2023-08-01T04:02:15;99437.69;;;16.29;100.00
5126;BME280;63008;53.112;8.896;2023-08-01T04:04:16;99433.72;;;16.26;100.00
5126;BME280;63008;53.112;8.896;2023-08-01T04:06:17;99432.97;;;16.26;100.00
5126;BME280;63008;53.112;8.896;2023-08-01T04:08:18;99431.75;;;16.27;100.00
5126;BME280;63008;53.112;8.896;2023-08-01T04:10:22;99434.97;;;16.22;100.00
5126;BME280;63008;53.112;8.896;2023-08-01T04:12:23;99434.16;;;16.25;100.00
5126;BME280;63008;53.112;8.896;2023-08-01T04:14:24;99432.97;;;16.22;100.00
5126;BME280;63008;53.112;8.896;2023-08-01T04:16:25;99440.50;;;16.22;100.00
5126;BME280;63008;53.112;8.896;2023-08-01T04:18:26;99432.97;;;16.22;100.00
5126;BME280;63008;53.112;8.896;2023-08-01T04:20:27;99432.56;;;16.24;100.00
5126;BME280;63008;53.112;8.896;2023-08-01T04:22:28;99427.03;;;16.24;100.00
5126;BME280;63008;53.112;8.896;2023-08-01T04:24:29;99436.13;;;16.24;100.00
5126;BME280;63008;53.112;8.896;2023-08-01T04:26:31;99432.97;;;16.22;100.00
5126;BME280;63008;53.112;8.896;2023-08-01T04:28:33;99431.38;;;16.21;100.00
5126;BME280;63008;53.112;8.896;2023-08-01T04:30:34;99436.53;;;16.19;100.00
5126;BME280;63008;53.112;8.896;2023-08-01T04:32:35;99438.94;;;16.21;100.00
5126;BME280;63008;53.112;8.896;2023-08-01T04:34:36;99435.34;;;16.20;100.00
5126;BME280;63008;53.112;8.896;2023-08-01T04:36:37;99433.78;;;16.19;100.00
5126;BME280;63008;53.112;8.896;2023-08-01T04:38:38;99437.72;;;16.22;100.00
5126;BME280;63008;53.112;8.896;2023-08-01T04:40:39;99431.78;;;16.23;100.00
5126;BME280;63008;53.112;8.896;2023-08-01T04:42:39;99432.16;;;16.25;100.00
5126;BME280;63008;53.112;8.896;2023-08-01T04:44:41;99434.16;;;16.21;100.00
5126;BME280;63008;53.112;8.896;2023-08-01T04:46:41;99443.28;;;16.22;100.00
5126;BME280;63008;53.112;8.896;2023-08-01T04:48:42;99438.50;;;16.26;100.00
5126;BME280;63008;53.112;8.896;2023-08-01T04:50:44;99442.84;;;16.30;100.00
5126;BME280;63008;53.112;8.896;2023-08-01T04:52:45;99450.34;;;16.26;100.00
5126;BME280;63008;53.112;8.896;2023-08-01T04:54:46;99452.81;;;16.07;100.00
5126;BME280;63008;53.112;8.896;2023-08-01T04:56:47;99458.84;;;15.84;100.00
5126;BME280;63008;53.112;8.896;2023-08-01T04:58:48;99462.81;;;15.73;100.00
5126;BME280;63008;53.112;8.896;2023-08-01T05:00:49;99453.38;;;15.60;100.00
5126;BME280;63008;53.112;8.896;2023-08-01T05:02:50;99443.13;;;15.43;100.00
5126;BME280;63008;53.112;8.896;2023-08-01T05:04:51;99438.81;;;15.35;100.00
5126;BME280;63008;53.112;8.896;2023-08-01T05:06:52;99440.38;;;15.29;100.00
5126;BME280;63008;53.112;8.896;2023-08-01T05:08:53;99444.72;;;15.30;100.00
5126;BME280;63008;53.112;8.896;2023-08-01T05:10:54;99453.78;;;15.27;100.00
5126;BME280;63008;53.112;8.896;2023-08-01T05:12:55;99438.41;;;15.29;100.00
5126;BME280;63008;53.112;8.896;2023-08-01T05:14:56;99443.94;;;15.33;100.00
5126;BME280;63008;53.112;8.896;2023-08-01T05:16:57;99443.16;;;15.36;100.00
5126;BME280;63008;53.112;8.896;2023-08-01T05:18:58;99434.84;;;15.36;100.00
5126;BME280;63008;53.112;8.896;2023-08-01T05:20:59;99437.63;;;15.36;100.00
5126;BME280;63008;53.112;8.896;2023-08-01T05:23:00;99436.81;;;15.42;100.00
5126;BME280;63008;53.112;8.896;2023-08-01T05:25:01;99437.22;;;15.44;100.00
5126;BME280;63008;53.112;8.896;2023-08-01T05:27:02;99439.19;;;15.51;100.00
5126;BME280;63008;53.112;8.896;2023-08-01T05:29:03;99426.50;;;15.53;100.00
5126;BME280;63008;53.112;8.896;2023-08-01T05:31:04;99424.13;;;15.55;100.00
5126;BME280;63008;53.112;8.896;2023-08-01T05:33:05;99418.59;;;15.62;100.00
5126;BME280;63008;53.112;8.896;2023-08-01T05:35:07;99417.00;;;15.65;100.00
5126;BME280;63008;53.112;8.896;2023-08-01T05:37:08;99415.03;;;15.69;100.00
5126;BME280;63008;53.112;8.896;2023-08-01T05:39:09;99418.56;;;15.73;100.00
5126;BME280;63008;53.112;8.896;2023-08-01T05:41:10;99416.56;;;15.73;100.00
5126;BME280;63008;53.112;8.896;2023-08-01T05:43:11;99420.94;;;15.71;100.00
5126;BME280;63008;53.112;8.896;2023-08-01T05:45:12;99418.94;;;15.71;100.00
5126;BME280;63008;53.112;8.896;2023-08-01T05:47:13;99433.59;;;15.72;100.00
5126;BME280;63008;53.112;8.896;2023-08-01T05:49:14;99434.34;;;15.76;100.00
5126;BME280;63008;53.112;8.896;2023-08-01T05:51:15;99448.56;;;15.74;100.00
5126;BME280;63008;53.112;8.896;2023-08-01T05:53:16;99440.31;;;15.71;100.00
5126;BME280;63008;53.112;8.896;2023-08-01T05:55:16;99444.66;;;15.72;100.00
5126;BME280;63008;53.112;8.896;2023-08-01T05:57:17;99443.47;;;15.73;100.00
5126;BME280;63008;53.112;8.896;2023-08-01T05:59:18;99454.09;;;15.78;100.00
5126;BME280;63008;53.112;8.896;2023-08-01T06:01:21;99448.56;;;15.81;100.00
5126;BME280;63008;53.112;8.896;2023-08-01T06:03:22;99448.16;;;15.83;100.00
5126;BME280;63008;53.112;8.896;2023-08-01T06:05:23;99448.16;;;15.83;100.00
5126;BME280;63008;53.112;8.896;2023-08-01T06:07:24;99455.66;;;15.89;100.00
5126;BME280;63008;53.112;8.896;2023-08-01T06:09:25;99449.72;;;15.91;100.00
5126;BME280;63008;53.112;8.896;2023-08-01T06:11:26;99449.72;;;15.91;100.00
5126;BME280;63008;53.112;8.896;2023-08-01T06:13:27;99451.31;;;15.88;100.00
5126;BME280;63008;53.112;8.896;2023-08-01T06:15:28;99452.91;;;15.86;100.00
5126;BME280;63008;53.112;8.896;2023-08-01T06:17:29;99452.50;;;15.91;100.00
5126;BME280;63008;53.112;8.896;2023-08-01T06:19:30;99452.88;;;15.93;100.00
5126;BME280;63008;53.112;8.896;2023-08-01T06:21:31;99462.75;;;15.94;100.00
5126;BME280;63008;53.112;8.896;2023-08-01T06:23:32;99457.22;;;15.94;100.00
5126;BME280;63008;53.112;8.896;2023-08-01T06:25:33;99452.06;;;15.99;100.00
5126;BME280;63008;53.112;8.896;2023-08-01T06:27:34;99461.13;;;16.03;100.00
5126;BME280;63008;53.112;8.896;2023-08-01T06:29:35;99456.38;;;16.07;100.00
5126;BME280;63008;53.112;8.896;2023-08-01T06:31:37;99459.91;;;16.15;100.00
5126;BME280;63008;53.112;8.896;2023-08-01T06:33:38;99462.25;;;16.20;100.00
5126;BME280;63008;53.112;8.896;2023-08-01T06:35:39;99461.41;;;16.26;100.00
5126;BME280;63008;53.112;8.896;2023-08-01T06:37:40;99462.22;;;16.27;100.00
5126;BME280;63008;53.112;8.896;2023-08-01T06:39:41;99461.41;;;16.26;100.00
5126;BME280;63008;53.112;8.896;2023-08-01T06:41:42;99462.22;;;16.30;100.00
5126;BME280;63008;53.112;8.896;2023-08-01T06:43:43;99469.72;;;16.30;100.00
5126;BME280;63008;53.112;8.896;2023-08-01T06:45:44;99469.31;;;16.42;100.00
5126;BME280;63008;53.112;8.896;2023-08-01T06:47:45;99472.00;;;16.49;100.00
5126;BME280;63008;53.112;8.896;2023-08-01T06:49:46;99472.00;;;16.56;100.00
5126;BME280;63008;53.112;8.896;2023-08-01T06:51:47;99476.72;;;16.58;100.00
5126;BME280;63008;53.112;8.896;2023-08-01T06:53:48;99478.25;;;16.63;100.00
5126;BME280;63008;53.112;8.896;2023-08-01T06:55:49;99463.63;;;16.66;100.00
5126;BME280;63008;53.112;8.896;2023-08-01T06:57:50;99470.69;;;16.70;100.00
5126;BME280;63008;53.112;8.896;2023-08-01T06:59:51;99465.13;;;16.77;100.00
5126;BME280;63008;53.112;8.896;2023-08-01T07:01:52;99471.78;;;16.87;100.00
5126;BME280;63008;53.112;8.896;2023-08-01T07:03:53;99470.94;;;16.93;100.00
5126;BME280;63008;53.112;8.896;2023-08-01T07:05:54;99468.09;;;17.04;100.00
5126;BME280;63008;53.112;8.896;2023-08-01T07:07:55;99466.00;;;17.15;100.00
5126;BME280;63008;53.112;8.896;2023-08-01T07:09:57;99470.69;;;17.21;100.00
5126;BME280;63008;53.112;8.896;2023-08-01T07:11:58;99467.56;;;17.19;100.00
5126;BME280;63008;53.112;8.896;2023-08-01T07:13:59;99468.47;;;17.06;100.00
5126;BME280;63008;53.112;8.896;2023-08-01T07:15:59;99470.91;;;16.97;100.00
5126;BME280;63008;53.112;8.896;2023-08-01T07:18:00;99470.97;;;16.86;100.00
5126;BME280;63008;53.112;8.896;2023-08-01T07:20:01;99472.69;;;16.73;100.00
5126;BME280;63008;53.112;8.896;2023-08-01T07:22:03;99471.56;;;16.64;100.00
5126;BME280;63008;53.112;8.896;2023-08-01T07:24:04;99466.47;;;16.56;100.00
5126;BME280;63008;53.112;8.896;2023-08-01T07:26:05;99467.59;;;16.61;100.00
5126;BME280;63008;53.112;8.896;2023-08-01T07:28:06;99468.72;;;16.67;100.00
5126;BME280;63008;53.112;8.896;2023-08-01T07:30:07;99478.56;;;16.79;100.00
5126;BME280;63008;53.112;8.896;2023-08-01T07:32:09;99478.09;;;16.87;100.00
5126;BME280;63008;53.112;8.896;2023-08-01T07:34:10;99470.47;;;17.02;100.00
5126;BME280;63008;53.112;8.896;2023-08-01T07:36:11;99478.72;;;17.12;100.00
5126;BME280;63008;53.112;8.896;2023-08-01T07:38:12;99489.72;;;17.23;100.00
5126;BME280;63008;53.112;8.896;2023-08-01T07:40:13;99482.25;;;17.16;100.00
5126;BME280;63008;53.112;8.896;2023-08-01T07:42:14;99478.66;;;17.19;100.00
5126;BME280;63008;53.112;8.896;2023-08-01T07:44:15;99482.63;;;17.18;100.00
5126;BME280;63008;53.112;8.896;2023-08-01T07:46:16;99491.84;;;17.05;100.00
5126;BME280;63008;53.112;8.896;2023-08-01T07:48:17;99486.34;;;16.98;100.00
5126;BME280;63008;53.112;8.896;2023-08-01T07:50:18;99480.00;;;16.97;100.00
5126;BME280;63008;53.112;8.896;2023-08-01T07:52:19;99489.06;;;17.05;100.00
5126;BME280;63008;53.112;8.896;2023-08-01T07:54:20;99495.00;;;17.07;100.00
5126;BME280;63008;53.112;8.896;2023-08-01T07:56:21;99496.66;;;16.97;100.00
5126;BME280;63008;53.112;8.896;2023-08-01T07:58:22;99496.34;;;16.85;100.00
5126;BME280;63008;53.112;8.896;2023-08-01T08:00:23;99491.56;;;16.85;100.00
5126;BME280;63008;53.112;8.896;2023-08-01T08:02:24;99486.47;;;16.84;100.00
5126;BME280;63008;53.112;8.896;2023-08-01T08:04:28;99492.81;;;16.77;100.00
5126;BME280;63008;53.112;8.896;2023-08-01T08:06:38;99498.38;;;16.74;100.00
5126;BME280;63008;53.112;8.896;2023-08-01T08:08:39;99492.78;;;16.84;100.00
5126;BME280;63008;53.112;8.896;2023-08-01T08:10:40;99494.25;;;16.99;100.00
5126;BME280;63008;53.112;8.896;2023-08-01T08:12:41;99491.84;;;17.05;100.00
5126;BME280;63008;53.112;8.896;2023-08-01T08:14:42;99497.69;;;17.17;100.00
5126;BME280;63008;53.112;8.896;2023-08-01T08:16:43;99503.91;;;17.35;100.00
5126;BME280;63008;53.112;8.896;2023-08-01T08:18:44;99500.72;;;17.33;100.00
5126;BME280;63008;53.112;8.896;2023-08-01T08:20:45;99499.16;;;17.36;100.00
5126;BME280;63008;53.112;8.896;2023-08-01T08:22:46;99491.56;;;17.43;100.00
5126;BME280;63008;53.112;8.896;2023-08-01T08:24:48;99500.19;;;17.52;100.00
5126;BME280;63008;53.112;8.896;2023-08-01T08:26:49;99508.94;;;17.47;100.00
5126;BME280;63008;53.112;8.896;2023-08-01T08:28:50;99505.00;;;17.45;100.00
5126;BME280;63008;53.112;8.896;2023-08-01T08:30:50;99506.66;;;17.35;100.00
5126;BME280;63008;53.112;8.896;2023-08-01T08:32:51;99505.09;;;17.34;100.00
5126;BME280;63008;53.112;8.896;2023-08-01T08:34:52;99504.97;;;17.48;100.00
5126;BME280;63008;53.112;8.896;2023-08-01T08:36:53;99511.63;;;17.58;100.00
5126;BME280;63008;53.112;8.896;2023-08-01T08:38:54;99514.41;;;17.58;100.00
5126;BME280;63008;53.112;8.896;2023-08-01T08:41:05;99502.94;;;17.56;100.00
5126;BME280;63008;53.112;8.896;2023-08-01T08:43:08;99493.66;;;17.73;100.00
5126;BME280;63008;53.112;8.896;2023-08-01T08:45:10;99490.66;;;17.90;100.00
5126;BME280;63008;53.112;8.896;2023-08-01T08:47:15;99509.13;;;18.07;100.00
5126;BME280;63008;53.112;8.896;2023-08-01T08:49:19;99496.47;;;18.03;100.00
5126;BME280;63008;53.112;8.896;2023-08-01T08:51:21;99502.38;;;18.08;100.00
5126;BME280;63008;53.112;8.896;2023-08-01T08:53:22;99501.97;;;18.10;100.00
5126;BME280;63008;53.112;8.896;2023-08-01T08:55:24;99498.94;;;18.31;100.00
5126;BME280;63008;53.112;8.896;2023-08-01T08:57:27;99499.97;;;18.44;100.00
5126;BME280;63008;53.112;8.896;2023-08-01T08:59:29;99510.25;;;18.47;100.00
5126;BME280;63008;53.112;8.896;2023-08-01T09:01:31;99506.13;;;18.58;99.23
5126;BME280;63008;53.112;8.896;2023-08-01T09:03:33;99497.78;;;18.58;99.24
5126;BME280;63008;53.112;8.896;2023-08-01T09:05:44;99507.56;;;18.69;99.21
5126;BME280;63008;53.112;8.896;2023-08-01T09:07:49;99504.09;;;18.62;95.01
5126;BME280;63008;53.112;8.896;2023-08-01T09:09:51;99508.66;;;18.49;95.01
5126;BME280;63008;53.112;8.896;2023-08-01T09:11:52;99513.81;;;18.77;94.26
5126;BME280;63008;53.112;8.896;2023-08-01T09:13:54;99515.00;;;18.76;94.00
5126;BME280;63008;53.112;8.896;2023-08-01T09:15:56;99508.81;;;18.91;93.46
5126;BME280;63008;53.112;8.896;2023-08-01T09:17:57;99505.94;;;18.98;94.14
5126;BME280;63008;53.112;8.896;2023-08-01T09:20:07;99502.16;;;18.85;92.31
5126;BME280;63008;53.112;8.896;2023-08-01T09:22:16;99507.38;;;18.83;92.88
5126;BME280;63008;53.112;8.896;2023-08-01T09:24:19;99500.09;;;18.63;91.58
5126;BME280;63008;53.112;8.896;2023-08-01T09:26:20;99488.06;;;18.43;90.62
5126;BME280;63008;53.112;8.896;2023-08-01T09:28:22;99489.94;;;18.53;91.90
5126;BME280;63008;53.112;8.896;2023-08-01T09:30:23;99483.44;;;18.89;91.19
5126;BME280;63008;53.112;8.896;2023-08-01T09:32:24;99494.47;;;19.23;87.13
5126;BME280;63008;53.112;8.896;2023-08-01T09:34:26;99478.63;;;19.43;86.06
5126;BME280;63008;53.112;8.896;2023-08-01T09:36:27;99484.28;;;19.82;85.15
5126;BME280;63008;53.112;8.896;2023-08-01T09:38:34;99491.34;;;20.29;86.00
5126;BME280;63008;53.112;8.896;2023-08-01T09:40:39;99483.16;;;20.57;79.49
5126;BME280;63008;53.112;8.896;2023-08-01T09:42:41;99484.47;;;20.88;79.59
5126;BME280;63008;53.112;8.896;2023-08-01T09:44:44;99481.00;;;20.64;78.58
5126;BME280;63008;53.112;8.896;2023-08-01T09:46:56;99478.03;;;20.17;80.26
5126;BME280;63008;53.112;8.896;2023-08-01T09:49:15;99476.84;;;19.75;84.00
5126;BME280;63008;53.112;8.896;2023-08-01T09:51:18;99466.78;;;19.39;88.88
5126;BME280;63008;53.112;8.896;2023-08-01T09:53:19;99465.81;;;18.99;92.97
5126;BME280;63008;53.112;8.896;2023-08-01T09:55:31;99475.25;;;18.79;94.78
5126;BME280;63008;53.112;8.896;2023-08-01T09:57:34;99484.47;;;18.72;98.34
5126;BME280;63008;53.112;8.896;2023-08-01T09:59:38;99486.50;;;18.42;98.03
5126;BME280;63008;53.112;8.896;2023-08-01T10:01:40;99498.72;;;18.48;100.00
5126;BME280;63008;53.112;8.896;2023-08-01T10:03:46;99485.47;;;18.59;95.29
5126;BME280;63008;53.112;8.896;2023-08-01T10:05:48;99493.25;;;18.71;95.24
5126;BME280;63008;53.112;8.896;2023-08-01T10:07:53;99501.16;;;18.72;89.23
5126;BME280;63008;53.112;8.896;2023-08-01T10:09:55;99497.06;;;18.54;90.35
5126;BME280;63008;53.112;8.896;2023-08-01T10:11:57;99487.66;;;18.45;91.06
5126;BME280;63008;53.112;8.896;2023-08-01T10:13:59;99488.53;;;18.38;94.06
5126;BME280;63008;53.112;8.896;2023-08-01T10:16:01;99486.72;;;18.25;97.67
5126;BME280;63008;53.112;8.896;2023-08-01T10:18:03;99486.91;;;18.07;97.39
5126;BME280;63008;53.112;8.896;2023-08-01T10:20:05;99486.63;;;17.98;100.00
5126;BME280;63008;53.112;8.896;2023-08-01T10:22:06;99479.16;;;18.25;100.00
5126;BME280;63008;53.112;8.896;2023-08-01T10:24:08;99479.72;;;19.26;99.77
5126;BME280;63008;53.112;8.896;2023-08-01T10:26:11;99479.94;;;19.35;93.32
5126;BME280;63008;53.112;8.896;2023-08-01T10:28:12;99482.53;;;19.45;93.39
5126;BME280;63008;53.112;8.896;2023-08-01T10:30:12;99478.34;;;19.80;90.58
5126;BME280;63008;53.112;8.896;2023-08-01T10:32:14;99485.47;;;20.42;89.36
5126;BME280;63008;53.112;8.896;2023-08-01T10:34:15;99491.69;;;20.85;84.31
5126;BME280;63008;53.112;8.896;2023-08-01T10:36:20;99486.66;;;20.61;82.92
5126;BME280;63008;53.112;8.896;2023-08-01T10:38:21;99483.03;;;20.25;85.00
5126;BME280;63008;53.112;8.896;2023-08-01T10:40:33;99488.22;;;19.84;85.23
5126;BME280;63008;53.112;8.896;2023-08-01T10:42:41;99484.13;;;19.69;85.49
5126;BME280;63008;53.112;8.896;2023-08-01T10:44:45;99485.22;;;19.29;85.87
5126;BME280;63008;53.112;8.896;2023-08-01T10:46:51;99492.91;;;19.22;86.12